createdAt,value
2022-11-06T00:01:55.187Z,16.82
2022-11-06T00:04:22.997Z,16.79
2022-11-06T00:06:49.860Z,16.93
2022-11-06T00:09:20.081Z,16.79
2022-11-06T00:11:49.145Z,16.84
2022-11-06T00:14:17.620Z,17.02
2022-11-06T00:16:48.410Z,16.79
2022-11-06T00:19:16.964Z,17.02
2022-11-06T00:21:45.158Z,16.93
2022-11-06T00:24:14.321Z,17.04
2022-11-06T00:26:42.691Z,17.00
2022-11-06T00:29:14.644Z,17.06
2022-11-06T00:31:42.483Z,17.11
2022-11-06T00:34:11.972Z,17.03
2022-11-06T00:36:39.746Z,16.87
2022-11-06T00:39:08.074Z,17.13
2022-11-06T00:41:35.826Z,17.13
2022-11-06T00:44:05.039Z,17.10
2022-11-06T00:46:32.912Z,16.93
2022-11-06T00:49:00.717Z,16.98
2022-11-06T00:51:32.136Z,16.95
2022-11-06T00:54:02.393Z,17.04
2022-11-06T00:56:31.152Z,17.09
2022-11-06T00:59:00.780Z,17.00
2022-11-06T01:01:30.529Z,16.96
2022-11-06T01:04:00.965Z,16.93
2022-11-06T01:06:32.532Z,16.97
2022-11-06T01:09:02.205Z,16.65
2022-11-06T01:11:52.340Z,16.87
2022-11-06T01:14:21.261Z,16.94
2022-11-06T01:16:49.395Z,16.86
2022-11-06T01:19:19.222Z,16.93
2022-11-06T01:21:50.036Z,16.87
2022-11-06T01:24:26.461Z,16.91
2022-11-06T01:29:42.723Z,16.91
2022-11-06T01:32:11.112Z,16.93
2022-11-06T01:34:38.901Z,16.80
2022-11-06T01:37:13.051Z,16.90
2022-11-06T01:39:42.125Z,16.83
2022-11-06T01:42:12.124Z,16.96
2022-11-06T01:45:17.406Z,16.84
2022-11-06T01:47:45.599Z,16.95
2022-11-06T01:50:15.795Z,16.77
2022-11-06T01:52:46.911Z,16.64
2022-11-06T01:55:20.313Z,16.85
2022-11-06T01:57:48.743Z,16.76
2022-11-06T02:00:17.370Z,16.83
2022-11-06T02:02:45.359Z,16.75
2022-11-06T02:05:13.317Z,16.94
2022-11-06T02:07:43.033Z,16.79
2022-11-06T02:10:12.516Z,16.82
2022-11-06T02:12:55.815Z,16.61
2022-11-06T02:15:35.473Z,16.64
2022-11-06T02:18:22.966Z,16.48
2022-11-06T05:29:34.648Z,14.40
2022-11-06T05:32:02.446Z,15.32
2022-11-06T05:34:30.300Z,15.64
2022-11-06T05:36:58.143Z,15.98
2022-11-06T05:39:25.849Z,15.88
2022-11-06T05:41:54.107Z,15.81
2022-11-06T05:44:21.913Z,16.04
2022-11-06T05:46:50.996Z,16.10
2022-11-06T05:49:19.030Z,16.15
2022-11-06T05:51:46.861Z,15.91
2022-11-06T05:54:15.415Z,16.17
2022-11-06T05:56:43.285Z,16.29
2022-11-06T05:59:10.977Z,16.20
2022-11-06T06:01:38.817Z,16.35
2022-11-06T06:04:07.928Z,16.27
2022-11-06T06:06:36.056Z,16.41
2022-11-06T06:09:04.428Z,16.27
2022-11-06T06:11:32.247Z,16.41
2022-11-06T06:14:01.785Z,16.29
2022-11-06T06:16:29.725Z,16.21
2022-11-06T06:18:57.431Z,16.12
2022-11-06T06:21:26.562Z,16.17
2022-11-06T06:23:54.250Z,16.19
2022-11-06T06:26:21.932Z,16.19
2022-11-06T06:28:50.065Z,16.29
2022-11-06T06:31:17.779Z,16.18
2022-11-06T06:33:45.527Z,16.30
2022-11-06T06:36:13.378Z,15.89
2022-11-06T06:38:42.506Z,16.21
2022-11-06T06:41:11.988Z,16.29
2022-11-06T06:43:39.858Z,16.21
2022-11-06T06:46:08.027Z,16.23
2022-11-06T06:48:36.343Z,16.19
2022-11-06T06:51:04.974Z,16.23
2022-11-06T06:53:32.832Z,15.95
2022-11-06T06:56:03.056Z,16.07
2022-11-06T06:58:31.530Z,15.95
2022-11-06T07:01:02.119Z,15.87
2022-11-06T07:03:30.198Z,16.15
2022-11-06T07:05:58.843Z,16.23
2022-11-06T07:08:26.676Z,16.46
2022-11-06T07:10:54.419Z,16.56
2022-11-06T07:13:23.451Z,16.30
2022-11-06T07:15:51.199Z,16.45
2022-11-06T07:18:18.880Z,16.29
2022-11-06T07:20:46.605Z,16.38
2022-11-06T07:23:14.382Z,16.35
2022-11-06T07:25:42.115Z,16.30
2022-11-06T07:28:10.186Z,16.31
2022-11-06T07:30:39.264Z,16.36
2022-11-06T07:33:07.231Z,16.56
2022-11-06T07:35:35.965Z,16.47
2022-11-06T07:38:05.871Z,16.31
2022-11-06T07:40:33.863Z,16.33
2022-11-06T07:43:05.785Z,16.28
2022-11-06T07:45:33.584Z,16.45
2022-11-06T07:48:02.845Z,16.26
2022-11-06T07:50:30.795Z,16.24
2022-11-06T07:52:58.704Z,16.36
2022-11-06T07:55:26.380Z,16.52
2022-11-06T07:57:54.089Z,16.20
2022-11-06T08:00:22.063Z,16.52
2022-11-06T08:02:52.653Z,16.30
2022-11-06T08:05:21.787Z,16.52
2022-11-06T08:07:49.468Z,16.63
2022-11-06T08:10:17.707Z,16.25
2022-11-06T08:12:45.477Z,16.28
2022-11-06T08:15:13.194Z,16.34
2022-11-06T08:17:40.883Z,16.34
2022-11-06T08:20:10.835Z,16.44
2022-11-06T08:22:39.957Z,16.64
2022-11-06T08:25:09.203Z,16.49
2022-11-06T08:27:37.756Z,16.10
2022-11-06T08:30:06.312Z,16.30
2022-11-06T08:32:34.080Z,16.28
2022-11-06T08:35:01.820Z,16.43
2022-11-06T08:37:29.515Z,16.44
2022-11-06T08:39:58.663Z,16.35
2022-11-06T08:42:26.345Z,16.48
2022-11-06T08:44:54.092Z,16.21
2022-11-06T08:47:21.789Z,16.46
2022-11-06T08:49:49.459Z,16.59
2022-11-06T08:52:17.338Z,16.69
2022-11-06T08:54:45.099Z,16.68
2022-11-06T08:57:14.208Z,16.51
2022-11-06T08:59:41.993Z,16.54
2022-11-06T09:02:13.203Z,16.47
2022-11-06T09:04:41.610Z,16.36
2022-11-06T09:07:09.592Z,16.29
2022-11-06T09:09:37.428Z,16.33
2022-11-06T09:12:05.636Z,16.23
2022-11-06T09:14:35.071Z,16.21
2022-11-06T09:17:02.742Z,16.31
2022-11-06T09:19:30.460Z,16.11
2022-11-06T09:21:58.151Z,15.58
2022-11-06T09:24:49.606Z,15.94
2022-11-06T09:27:13.786Z,15.83
2022-11-06T09:29:44.211Z,15.89
2022-11-06T09:32:11.927Z,15.86
2022-11-06T09:34:39.701Z,15.79
2022-11-06T09:37:07.368Z,15.77
2022-11-06T09:39:35.062Z,15.97
2022-11-06T09:42:13.678Z,16.24
2022-11-06T09:44:56.488Z,16.49
2022-11-06T09:47:31.079Z,16.70
2022-11-06T09:49:59.236Z,16.77
2022-11-06T09:52:35.483Z,16.87
2022-11-06T09:55:05.929Z,16.93
2022-11-06T09:57:38.711Z,16.75
2022-11-06T10:00:12.693Z,16.85
2022-11-06T10:02:47.319Z,16.74
2022-11-06T10:05:25.083Z,16.36
2022-11-06T10:07:54.884Z,16.58
2022-11-06T10:10:28.048Z,16.30
2022-11-06T10:13:17.236Z,16.34
2022-11-06T10:15:53.096Z,16.20
2022-11-06T10:18:31.075Z,16.32
2022-11-06T10:21:09.399Z,16.46
2022-11-06T10:23:45.317Z,16.55
2022-11-06T10:26:16.353Z,16.53
2022-11-06T10:29:22.164Z,16.24
2022-11-06T10:32:02.904Z,15.75
2022-11-06T10:34:35.864Z,15.75
2022-11-06T10:37:09.719Z,15.93
2022-11-06T10:39:38.142Z,15.89
2022-11-06T10:42:13.184Z,16.01
2022-11-06T10:44:47.115Z,16.27
2022-11-06T10:47:20.241Z,16.61
2022-11-06T10:49:51.232Z,16.59
2022-11-06T10:52:39.788Z,16.81
2022-11-06T10:55:54.770Z,16.39
2022-11-06T10:58:24.445Z,16.17
2022-11-06T11:01:02.372Z,16.14
2022-11-06T11:03:33.784Z,16.59
2022-11-06T11:06:01.806Z,16.55
2022-11-06T11:08:39.739Z,16.56
2022-11-06T11:11:17.052Z,17.11
2022-11-06T11:13:47.062Z,17.11
2022-11-06T11:16:18.262Z,16.75
2022-11-06T11:18:47.818Z,16.88
2022-11-06T11:21:24.250Z,17.12
2022-11-06T11:24:09.320Z,17.69
2022-11-06T11:26:40.947Z,17.80
2022-11-06T11:29:15.352Z,17.22
2022-11-06T11:31:47.961Z,16.76
2022-11-06T11:34:23.347Z,17.24
2022-11-06T11:37:02.917Z,17.36
2022-11-06T11:39:32.857Z,17.00
2022-11-06T11:42:25.854Z,17.08
2022-11-06T11:45:17.198Z,16.75
2022-11-06T11:47:47.845Z,16.74
2022-11-06T11:50:37.751Z,16.93
2022-11-06T11:53:12.680Z,16.83
2022-11-06T11:55:44.354Z,16.63
2022-11-06T11:58:23.640Z,17.12
2022-11-06T12:00:57.144Z,17.04
2022-11-06T12:03:29.035Z,17.16
2022-11-06T12:06:09.097Z,17.17
2022-11-06T12:08:39.071Z,16.85
2022-11-06T12:11:08.430Z,16.95
2022-11-06T12:13:36.175Z,17.14
2022-11-06T12:16:06.639Z,17.18
2022-11-06T12:18:36.823Z,16.50
2022-11-06T12:21:08.402Z,16.57
2022-11-06T12:23:41.788Z,16.84
2022-11-06T12:26:13.314Z,17.35
2022-11-06T12:28:44.587Z,16.60
2022-11-06T12:31:21.128Z,16.80
2022-11-06T12:34:06.947Z,16.86
2022-11-06T12:36:42.252Z,17.52
2022-11-06T12:39:17.415Z,17.21
2022-11-06T12:41:48.140Z,16.79
2022-11-06T12:44:18.311Z,17.15
2022-11-06T12:46:55.960Z,17.01
2022-11-06T12:49:36.596Z,17.28
2022-11-06T12:52:18.726Z,17.16
2022-11-06T12:55:08.695Z,17.17
2022-11-06T12:57:48.952Z,16.98
2022-11-06T13:00:20.459Z,17.13
2022-11-06T13:03:19.058Z,17.64
2022-11-06T13:05:53.607Z,17.69
2022-11-06T13:08:32.244Z,17.45
2022-11-06T13:11:10.380Z,17.41
2022-11-06T13:13:47.079Z,17.77
2022-11-06T13:16:28.787Z,17.67
2022-11-06T13:19:01.917Z,17.68
2022-11-06T13:21:36.857Z,18.03
2022-11-06T13:24:12.382Z,18.01
2022-11-06T13:26:47.535Z,18.04
2022-11-06T13:29:18.522Z,17.57
2022-11-06T13:31:49.828Z,17.60
2022-11-06T13:34:23.494Z,18.29
2022-11-06T13:36:52.399Z,18.00
2022-11-06T13:39:29.696Z,18.43
2022-11-06T13:41:58.805Z,18.21
2022-11-06T13:44:27.564Z,18.12
2022-11-06T13:47:03.188Z,18.17
2022-11-06T13:49:43.931Z,18.85
2022-11-06T13:52:16.851Z,19.62
2022-11-06T13:55:01.914Z,19.30
2022-11-06T13:57:53.275Z,19.40
2022-11-06T14:00:22.762Z,18.74
2022-11-06T14:03:23.470Z,18.33
2022-11-06T14:05:54.187Z,18.70
2022-11-06T14:08:26.808Z,18.53
2022-11-06T14:10:59.877Z,18.38
2022-11-06T14:13:32.202Z,18.86
2022-11-06T14:16:15.607Z,18.24
2022-11-06T14:18:43.667Z,18.54
2022-11-06T14:21:45.402Z,18.92
2022-11-06T14:24:32.978Z,18.12
2022-11-06T14:27:03.435Z,18.29
2022-11-06T14:30:02.191Z,18.24
2022-11-06T14:32:45.629Z,18.29
2022-11-06T14:35:46.645Z,18.10
2022-11-06T14:38:18.944Z,18.04
2022-11-06T14:40:46.898Z,18.70
2022-11-06T14:43:23.937Z,19.06
2022-11-06T14:45:53.555Z,18.45
2022-11-06T14:48:30.458Z,18.86
2022-11-06T14:51:00.694Z,18.33
2022-11-06T14:53:32.593Z,18.21
2022-11-06T14:56:03.125Z,18.42
2022-11-06T14:58:35.168Z,18.71
2022-11-06T15:01:13.828Z,17.69
2022-11-06T15:03:47.927Z,17.99
2022-11-06T15:06:40.691Z,18.32
2022-11-06T15:09:13.095Z,17.61
2022-11-06T15:11:55.746Z,17.70
2022-11-06T15:14:57.162Z,17.62
2022-11-06T15:17:28.174Z,17.91
2022-11-06T15:20:05.847Z,17.67
2022-11-06T15:22:39.145Z,18.10
2022-11-06T15:25:18.548Z,18.34
2022-11-06T15:27:49.483Z,18.38
2022-11-06T15:30:21.314Z,18.34
2022-11-06T15:32:52.597Z,18.28
2022-11-06T15:35:23.582Z,18.44
2022-11-06T15:37:53.993Z,18.02
2022-11-06T15:40:26.015Z,17.35
2022-11-06T15:42:54.073Z,17.71
2022-11-06T15:45:25.399Z,17.24
2022-11-06T15:47:58.969Z,17.36
2022-11-06T15:50:28.759Z,17.68
2022-11-06T15:53:11.015Z,17.58
2022-11-06T15:55:40.988Z,17.85
2022-11-06T15:58:09.808Z,17.41
2022-11-06T16:00:42.345Z,17.45
2022-11-06T16:03:15.854Z,17.62
2022-11-06T16:05:44.287Z,17.36
2022-11-06T16:08:14.585Z,17.07
2022-11-06T16:10:44.892Z,17.16
2022-11-06T16:13:14.434Z,17.37
2022-11-06T16:15:56.437Z,17.31
2022-11-06T16:18:28.208Z,16.93
2022-11-06T16:21:00.161Z,17.28
2022-11-06T16:23:38.755Z,17.29
2022-11-06T16:26:10.046Z,17.21
2022-11-06T16:28:43.057Z,17.07
2022-11-06T16:31:17.296Z,17.19
2022-11-06T16:33:55.396Z,17.00
2022-11-06T16:36:23.756Z,17.12
2022-11-06T16:38:53.291Z,16.84
2022-11-06T16:41:47.879Z,16.96
2022-11-06T16:44:29.655Z,16.86
2022-11-06T16:47:12.754Z,16.81
2022-11-06T16:49:41.829Z,16.61
2022-11-06T16:52:22.832Z,16.59
2022-11-06T16:54:52.245Z,16.55
2022-11-06T16:57:22.428Z,16.76
2022-11-06T16:59:59.770Z,16.40
2022-11-06T17:02:32.218Z,16.56
2022-11-06T17:05:14.322Z,16.83
2022-11-06T17:07:44.105Z,16.56
2022-11-06T17:10:37.307Z,16.63
2022-11-06T17:13:14.652Z,16.49
2022-11-06T17:15:43.236Z,16.25
2022-11-06T17:18:16.888Z,16.37
2022-11-06T17:20:49.023Z,16.29
2022-11-06T17:23:17.601Z,16.54
2022-11-06T17:25:47.195Z,16.61
2022-11-06T17:28:14.904Z,16.03
2022-11-06T17:30:42.609Z,15.88
2022-11-06T17:33:10.337Z,15.85
2022-11-06T17:35:40.425Z,16.25
2022-11-06T17:38:08.344Z,16.02
2022-11-06T17:40:36.328Z,16.14
2022-11-06T17:43:04.028Z,16.19
2022-11-06T17:45:31.956Z,16.18
2022-11-06T17:47:59.653Z,16.33
2022-11-06T17:50:27.690Z,15.86
2022-11-06T17:52:56.761Z,16.21
2022-11-06T17:55:24.491Z,16.15
2022-11-06T17:57:52.149Z,16.35
2022-11-06T18:00:20.755Z,16.19
2022-11-06T18:03:01.152Z,16.38
2022-11-06T18:05:29.972Z,16.08
2022-11-06T18:07:59.047Z,15.88
2022-11-06T18:10:30.369Z,15.96
2022-11-06T18:12:58.612Z,16.02
2022-11-06T18:15:26.410Z,15.77
2022-11-06T18:17:54.090Z,15.84
2022-11-06T18:20:21.815Z,16.01
2022-11-06T18:22:49.551Z,16.19
2022-11-06T18:25:18.688Z,15.99
2022-11-06T18:27:46.379Z,16.15
2022-11-06T18:30:14.795Z,16.13
2022-11-06T18:32:42.489Z,16.27
2022-11-06T18:35:10.599Z,16.18
2022-11-06T18:37:38.269Z,15.81
2022-11-06T18:40:06.799Z,16.01
2022-11-06T18:42:35.974Z,16.14
2022-11-06T18:45:03.740Z,16.24
2022-11-06T18:47:31.438Z,15.83
2022-11-06T18:49:59.207Z,15.77
2022-11-06T18:52:51.417Z,15.64
2022-11-06T18:55:14.748Z,15.61
2022-11-06T18:57:43.851Z,15.35
2022-11-06T19:00:13.556Z,15.56
2022-11-06T19:02:41.669Z,15.67
2022-11-06T19:05:09.654Z,15.65
2022-11-06T19:07:37.525Z,15.53
2022-11-06T19:10:06.237Z,15.64
2022-11-06T19:12:34.272Z,15.54
2022-11-06T19:15:03.421Z,15.36
2022-11-06T19:17:31.114Z,15.74
2022-11-06T19:19:59.762Z,15.49
2022-11-06T19:22:29.325Z,15.42
2022-11-06T19:24:57.049Z,15.30
2022-11-06T19:27:24.816Z,15.20
2022-11-06T19:29:52.579Z,15.45
2022-11-06T19:32:21.699Z,15.48
2022-11-06T19:34:49.386Z,15.12
2022-11-06T19:37:17.119Z,15.07
2022-11-06T19:39:44.816Z,15.27
2022-11-06T19:42:12.537Z,15.45
2022-11-06T19:44:40.281Z,15.49
2022-11-06T19:47:08.002Z,14.93
2022-11-06T19:49:37.223Z,15.38
2022-11-06T19:52:41.235Z,15.23
2022-11-06T19:55:26.839Z,15.40
2022-11-06T19:57:40.749Z,15.02
2022-11-06T20:00:11.384Z,15.51
2022-11-06T20:02:39.544Z,15.07
2022-11-06T20:05:09.472Z,15.44
2022-11-06T20:07:37.813Z,15.22
2022-11-06T20:10:06.245Z,14.99
2022-11-06T20:12:33.925Z,15.23
2022-11-06T20:15:01.727Z,15.28
2022-11-06T20:17:29.424Z,15.45
2022-11-06T20:19:57.153Z,15.44
2022-11-06T20:22:26.232Z,15.14
2022-11-06T20:24:54.151Z,15.31
2022-11-06T20:27:21.998Z,15.45
2022-11-06T20:29:49.697Z,15.18
2022-11-06T20:32:19.262Z,15.55
2022-11-06T20:34:47.348Z,15.62
2022-11-06T20:37:15.072Z,15.48
2022-11-06T20:39:45.400Z,15.44
2022-11-06T20:42:13.087Z,15.53
2022-11-06T20:44:40.820Z,15.59
2022-11-06T20:47:08.503Z,15.04
2022-11-06T20:49:37.945Z,15.02
2022-11-06T20:52:14.802Z,15.66
2022-11-06T20:54:47.568Z,15.53
2022-11-06T20:57:15.993Z,15.18
2022-11-06T20:59:43.839Z,15.00
2022-11-06T21:02:12.297Z,15.74
2022-11-06T21:04:40.300Z,15.69
2022-11-06T21:07:08.040Z,15.72
2022-11-06T21:09:35.751Z,16.00
2022-11-06T21:12:05.301Z,15.47
2022-11-06T21:14:33.269Z,15.62
2022-11-06T21:17:02.281Z,15.61
2022-11-06T21:19:30.767Z,15.96
2022-11-06T21:21:58.600Z,15.82
2022-11-06T21:24:26.317Z,15.89
2022-11-06T21:26:55.902Z,15.95
2022-11-06T21:29:25.740Z,15.81
2022-11-06T21:31:53.441Z,15.75
2022-11-06T21:34:21.223Z,15.65
2022-11-06T21:36:49.004Z,15.96
2022-11-06T21:39:19.103Z,15.82
2022-11-06T21:41:47.795Z,15.63
2022-11-06T21:44:17.306Z,15.40
2022-11-06T21:46:47.170Z,15.64
2022-11-06T21:49:15.271Z,16.08
2022-11-06T21:51:43.020Z,16.09
2022-11-06T21:54:29.562Z,15.98
2022-11-06T21:56:57.324Z,15.88
2022-11-06T21:59:26.461Z,15.83
2022-11-06T22:01:55.648Z,15.59
2022-11-06T22:04:23.766Z,15.73
2022-11-06T22:06:52.283Z,15.80
2022-11-06T22:09:24.824Z,15.29
2022-11-06T22:11:53.288Z,15.50
2022-11-06T22:14:21.036Z,15.44
2022-11-06T22:16:48.960Z,15.55
2022-11-06T22:19:18.602Z,15.61
2022-11-06T22:21:46.631Z,15.57
2022-11-06T22:24:15.165Z,15.58
2022-11-06T22:26:43.331Z,15.31
2022-11-06T22:29:13.801Z,15.46
2022-11-06T22:31:42.020Z,15.04
2022-11-06T22:34:10.780Z,15.16
2022-11-06T22:36:40.471Z,15.28
2022-11-06T22:39:09.851Z,15.51
2022-11-06T22:41:38.565Z,15.34
2022-11-06T22:44:06.761Z,15.89
2022-11-06T22:46:34.694Z,15.78
2022-11-06T22:49:02.639Z,16.10
2022-11-06T22:51:31.849Z,15.95
2022-11-06T22:54:02.083Z,16.04
2022-11-06T22:56:31.392Z,15.92
2022-11-06T22:59:00.984Z,15.60
2022-11-06T23:01:30.978Z,15.84
2022-11-06T23:04:01.247Z,15.99
2022-11-06T23:06:29.053Z,16.07
2022-11-06T23:08:56.779Z,15.93
2022-11-06T23:11:28.137Z,15.86
2022-11-06T23:13:56.345Z,15.94
2022-11-06T23:16:39.465Z,15.94
2022-11-06T23:19:08.041Z,15.73
2022-11-06T23:21:36.029Z,15.72
2022-11-06T23:24:04.787Z,15.61
2022-11-06T23:26:33.889Z,15.69
2022-11-06T23:29:02.019Z,15.75
2022-11-06T23:31:29.814Z,15.91
2022-11-06T23:33:57.576Z,15.63
2022-11-06T23:36:25.249Z,15.54
2022-11-06T23:38:54.274Z,15.66
2022-11-06T23:41:39.269Z,15.54
2022-11-06T23:44:29.666Z,15.76
2022-11-06T23:46:57.103Z,15.69
2022-11-06T23:49:26.030Z,15.49
2022-11-06T23:51:53.831Z,15.71
2022-11-06T23:54:21.713Z,15.30
2022-11-06T23:56:49.497Z,15.55
2022-11-06T23:59:18.554Z,15.57
